createdAt,value
2022-10-20T00:01:24.306Z,17.37
2022-10-20T00:03:52.680Z,13.37
2022-10-20T00:06:21.202Z,7.30
2022-10-20T00:08:48.786Z,12.75
2022-10-20T00:11:18.661Z,12.83
2022-10-20T00:13:47.420Z,11.33
2022-10-20T00:16:14.561Z,13.82
2022-10-20T00:18:42.172Z,11.57
2022-10-20T00:21:21.442Z,10.20
2022-10-20T00:23:48.999Z,11.30
2022-10-20T00:26:24.530Z,12.57
2022-10-20T00:28:52.273Z,10.73
2022-10-20T00:31:21.480Z,15.20
2022-10-20T00:33:48.784Z,12.83
2022-10-20T00:36:17.979Z,14.63
2022-10-20T00:38:45.249Z,11.33
2022-10-20T00:41:14.651Z,11.90
2022-10-20T00:43:55.618Z,19.17
2022-10-20T00:46:32.542Z,16.63
2022-10-20T00:49:06.479Z,19.80
2022-10-20T00:51:33.976Z,15.47
2022-10-20T00:54:08.939Z,13.73
2022-10-20T00:56:38.775Z,16.60
2022-10-20T00:59:06.453Z,15.73
2022-10-20T01:01:33.604Z,15.77
2022-10-20T01:04:01.335Z,11.73
2022-10-20T01:06:28.257Z,14.63
2022-10-20T01:08:55.475Z,12.67
2022-10-20T01:11:45.947Z,12.87
2022-10-20T01:14:52.322Z,16.20
2022-10-20T01:18:01.562Z,14.23
2022-10-20T01:20:28.834Z,10.93
2022-10-20T01:23:09.819Z,12.67
2022-10-20T01:25:56.991Z,14.00
2022-10-20T01:28:40.168Z,15.20
2022-10-20T01:31:38.487Z,16.57
2022-10-20T01:34:24.049Z,15.10
2022-10-20T01:36:59.284Z,8.73
2022-10-20T01:39:34.801Z,16.57
2022-10-20T01:42:07.637Z,13.67
2022-10-20T01:44:36.857Z,15.67
2022-10-20T01:47:08.387Z,13.30
2022-10-20T01:49:35.425Z,16.77
2022-10-20T01:52:02.647Z,14.40
2022-10-20T01:54:30.785Z,11.27
2022-10-20T01:57:03.606Z,13.38
2022-10-20T01:59:41.334Z,11.40
2022-10-20T02:02:11.404Z,12.37
2022-10-20T02:05:02.976Z,14.50
2022-10-20T02:07:32.968Z,13.73
2022-10-20T02:10:13.022Z,12.60
2022-10-20T02:12:44.118Z,14.20
2022-10-20T02:15:14.957Z,12.77
2022-10-20T02:17:44.715Z,18.13
2022-10-20T02:20:11.767Z,17.67
2022-10-20T02:22:40.451Z,16.77
2022-10-20T02:25:11.606Z,15.38
2022-10-20T02:27:42.508Z,14.63
2022-10-20T02:30:13.659Z,14.37
2022-10-20T02:32:42.822Z,15.07
2022-10-20T02:35:23.156Z,12.63
2022-10-20T02:37:50.635Z,14.27
2022-10-20T02:43:06.094Z,14.02
2022-10-20T02:45:33.054Z,14.77
2022-10-20T02:47:59.788Z,17.53
2022-10-20T02:50:26.790Z,13.70
2022-10-20T02:52:53.642Z,19.87
2022-10-20T02:55:20.662Z,17.13
2022-10-20T02:57:47.454Z,19.23
2022-10-20T03:00:14.631Z,20.70
2022-10-20T03:02:41.369Z,19.23
2022-10-20T03:05:08.697Z,18.70
2022-10-20T03:07:35.752Z,17.07
2022-10-20T03:10:03.739Z,21.80
2022-10-20T03:12:32.227Z,18.50
2022-10-20T03:14:59.429Z,24.58
2022-10-20T03:17:26.162Z,18.23
2022-10-20T03:19:53.128Z,16.53
2022-10-20T03:22:19.942Z,20.10
2022-10-20T03:24:46.901Z,24.97
2022-10-20T03:27:14.320Z,23.23
2022-10-20T03:29:41.346Z,21.00
2022-10-20T03:32:08.141Z,25.17
2022-10-20T03:34:35.152Z,22.03
2022-10-20T03:37:02.427Z,21.97
2022-10-20T03:39:29.406Z,25.90
2022-10-20T03:41:57.874Z,21.73
2022-10-20T03:44:24.968Z,26.33
2022-10-20T03:46:51.743Z,25.07
2022-10-20T03:49:18.786Z,24.40
2022-10-20T03:51:45.555Z,25.63
2022-10-20T03:54:12.530Z,36.17
2022-10-20T03:56:39.326Z,33.50
2022-10-20T03:59:06.291Z,31.33
2022-10-20T04:01:34.938Z,32.53
2022-10-20T04:04:02.224Z,34.40
2022-10-20T04:06:29.153Z,30.83
2022-10-20T04:08:56.228Z,32.63
2022-10-20T04:11:24.142Z,34.27
2022-10-20T04:13:51.725Z,27.70
2022-10-20T04:16:18.622Z,29.63
2022-10-20T04:18:45.590Z,29.17
2022-10-20T04:21:12.424Z,23.73
2022-10-20T04:23:39.367Z,29.07
2022-10-20T04:26:10.984Z,26.43
2022-10-20T04:28:38.353Z,25.00
2022-10-20T04:31:06.133Z,27.13
2022-10-20T04:33:33.334Z,28.57
2022-10-20T04:36:08.074Z,35.37
2022-10-20T04:38:35.533Z,29.30
2022-10-20T04:41:04.635Z,29.13
2022-10-20T04:46:07.249Z,28.17
2022-10-20T04:48:37.222Z,30.70
2022-10-20T04:51:09.396Z,29.73
2022-10-20T04:53:36.943Z,29.43
2022-10-20T04:56:05.726Z,28.77
2022-10-20T04:58:33.603Z,28.08
2022-10-20T05:01:05.435Z,25.97
2022-10-20T05:03:33.065Z,29.23
2022-10-20T05:06:24.658Z,27.70
2022-10-20T05:08:54.167Z,27.53
2022-10-20T05:11:23.151Z,28.93
2022-10-20T05:13:50.167Z,28.52
2022-10-20T05:16:20.037Z,31.33
2022-10-20T05:18:48.515Z,29.80
2022-10-20T05:21:23.346Z,35.47
2022-10-20T05:23:55.790Z,30.40
2022-10-20T05:26:22.600Z,30.67
2022-10-20T05:28:51.385Z,30.47
2022-10-20T05:31:21.224Z,27.08
2022-10-20T05:33:50.958Z,28.00
2022-10-20T05:36:21.587Z,32.67
2022-10-20T05:38:50.911Z,34.17
2022-10-20T05:41:20.459Z,31.98
2022-10-20T05:43:52.620Z,32.27
2022-10-20T05:46:20.422Z,41.63
2022-10-20T05:48:47.860Z,32.00
2022-10-20T05:51:17.856Z,35.23
2022-10-20T05:53:45.391Z,35.37
2022-10-20T05:56:15.429Z,37.37
2022-10-20T05:58:43.668Z,32.30
2022-10-20T06:01:21.221Z,37.93
2022-10-20T06:03:50.070Z,36.60
2022-10-20T06:06:17.723Z,42.22
2022-10-20T06:08:44.877Z,32.30
2022-10-20T06:11:14.227Z,36.23
2022-10-20T06:16:13.803Z,37.07
2022-10-20T06:18:43.851Z,33.87
2022-10-20T06:21:13.878Z,36.27
2022-10-20T06:23:40.966Z,30.47
2022-10-20T06:26:13.601Z,30.10
2022-10-20T06:28:41.418Z,26.03
2022-10-20T06:31:21.604Z,33.77
2022-10-20T06:33:49.292Z,30.20
2022-10-20T06:36:17.224Z,32.33
2022-10-20T06:38:44.939Z,23.63
2022-10-20T06:41:15.242Z,27.77
2022-10-20T06:43:43.537Z,24.77
2022-10-20T06:46:16.662Z,21.57
2022-10-20T06:48:44.496Z,23.37
2022-10-20T06:51:16.519Z,20.73
2022-10-20T06:53:46.589Z,18.43
2022-10-20T06:56:16.526Z,19.97
2022-10-20T06:58:45.304Z,18.23
2022-10-20T07:01:14.967Z,13.35
2022-10-20T07:03:43.372Z,15.43
2022-10-20T07:06:14.434Z,16.03
2022-10-20T07:08:42.021Z,16.77
2022-10-20T07:11:18.397Z,15.47
2022-10-20T07:13:46.375Z,13.73
2022-10-20T07:16:15.461Z,12.43
2022-10-20T07:21:17.638Z,14.17
2022-10-20T07:23:45.628Z,15.93
2022-10-20T07:26:19.560Z,14.37
2022-10-20T07:28:54.672Z,15.73
2022-10-20T07:31:23.940Z,12.53
2022-10-20T07:34:13.400Z,12.65
2022-10-20T07:36:40.203Z,17.17
2022-10-20T07:41:34.805Z,21.03
2022-10-20T07:44:01.971Z,19.57
2022-10-20T07:46:28.754Z,18.37
2022-10-20T07:49:02.761Z,15.13
2022-10-20T07:51:38.450Z,19.07
2022-10-20T07:54:07.668Z,17.07
2022-10-20T07:56:40.070Z,21.33
2022-10-20T07:59:08.568Z,18.73
2022-10-20T08:01:36.147Z,20.08
2022-10-20T08:04:03.991Z,17.90
2022-10-20T08:06:30.863Z,16.70
2022-10-20T08:08:57.973Z,17.13
2022-10-20T08:11:24.813Z,18.87
2022-10-20T08:13:52.515Z,15.97
2022-10-20T08:21:47.462Z,13.40
2022-10-20T08:24:14.475Z,18.40
2022-10-20T08:26:41.388Z,16.38
2022-10-20T08:29:09.334Z,28.30
2022-10-20T08:31:36.223Z,37.67
2022-10-20T08:34:03.305Z,15.18
2022-10-20T08:36:30.220Z,15.40
2022-10-20T08:39:03.607Z,9.07
2022-10-20T08:42:02.738Z,12.13
2022-10-20T08:44:31.916Z,16.45
2022-10-20T08:47:01.312Z,11.57
2022-10-20T08:49:32.281Z,13.07
2022-10-20T08:51:59.333Z,13.88
2022-10-20T08:54:26.420Z,15.80
2022-10-20T08:56:53.631Z,11.75
2022-10-20T08:59:35.192Z,12.95
2022-10-20T09:02:03.883Z,13.15
2022-10-20T09:07:30.037Z,8.60
2022-10-20T09:10:07.675Z,11.80
2022-10-20T09:12:34.887Z,12.35
2022-10-20T09:15:02.127Z,10.40
2022-10-20T09:17:29.167Z,10.30
2022-10-20T09:19:59.303Z,10.20
2022-10-20T09:22:32.141Z,10.27
2022-10-20T09:25:03.522Z,9.57
2022-10-20T09:27:39.885Z,11.40
2022-10-20T09:30:30.071Z,8.95
2022-10-20T09:32:56.939Z,9.63
2022-10-20T09:35:28.719Z,12.82
2022-10-20T09:38:03.243Z,9.55
2022-10-20T09:40:31.021Z,11.38
2022-10-20T09:43:15.394Z,10.70
2022-10-20T09:46:06.745Z,9.30
2022-10-20T09:48:38.240Z,7.90
2022-10-20T09:54:04.931Z,8.35
2022-10-20T09:56:35.217Z,7.15
2022-10-20T09:59:05.950Z,8.88
2022-10-20T10:01:33.128Z,10.45
2022-10-20T10:04:02.155Z,8.95
2022-10-20T10:06:32.347Z,9.13
2022-10-20T10:09:02.090Z,10.95
2022-10-20T10:11:34.339Z,12.77
2022-10-20T10:14:02.365Z,12.73
2022-10-20T10:16:40.918Z,8.43
2022-10-20T10:19:08.177Z,7.13
2022-10-20T10:21:53.524Z,8.88
2022-10-20T10:24:42.321Z,6.35
2022-10-20T10:29:46.713Z,8.02
2022-10-20T10:32:19.289Z,6.97
2022-10-20T10:35:16.957Z,11.23
2022-10-20T10:37:45.024Z,7.93
2022-10-20T10:40:27.010Z,7.32
2022-10-20T10:42:59.925Z,5.90
2022-10-20T10:45:29.591Z,9.13
2022-10-20T10:48:22.108Z,8.70
2022-10-20T10:51:00.947Z,8.63
2022-10-20T10:53:45.486Z,10.73
2022-10-20T10:56:39.700Z,6.95
2022-10-20T10:59:35.016Z,7.00
2022-10-20T11:02:25.623Z,8.98
2022-10-20T11:05:11.329Z,7.28
2022-10-20T11:07:51.240Z,7.13
2022-10-20T11:10:33.277Z,7.30
2022-10-20T11:13:03.789Z,7.43
2022-10-20T11:15:41.860Z,7.05
2022-10-20T11:18:17.466Z,8.05
2022-10-20T11:20:47.060Z,13.40
2022-10-20T11:23:51.392Z,6.35
2022-10-20T11:26:39.091Z,7.65
2022-10-20T11:29:12.615Z,6.20
2022-10-20T11:31:48.421Z,7.40
2022-10-20T11:34:15.158Z,7.43
2022-10-20T11:36:47.859Z,6.68
2022-10-20T11:39:24.162Z,5.80
2022-10-20T11:41:58.536Z,4.15
2022-10-20T11:44:38.163Z,9.60
2022-10-20T11:47:12.683Z,6.75
2022-10-20T11:49:40.815Z,4.55
2022-10-20T11:52:26.340Z,5.68
2022-10-20T11:55:27.355Z,7.75
2022-10-20T11:58:18.434Z,6.95
2022-10-20T12:00:57.629Z,8.68
2022-10-20T12:03:45.738Z,7.30
2022-10-20T12:06:41.698Z,7.05
2022-10-20T12:12:02.419Z,5.15
2022-10-20T12:14:46.455Z,5.80
2022-10-20T12:17:30.198Z,5.30
2022-10-20T12:20:21.804Z,5.57
2022-10-20T12:22:50.472Z,5.25
2022-10-20T12:25:25.322Z,5.32
2022-10-20T12:28:20.756Z,6.72
2022-10-20T12:31:07.198Z,7.07
2022-10-20T12:33:59.248Z,5.03
2022-10-20T12:36:36.550Z,4.72
2022-10-20T12:39:12.351Z,5.10
2022-10-20T12:41:55.436Z,7.30
2022-10-20T12:44:23.606Z,7.00
2022-10-20T12:46:58.125Z,5.30
2022-10-20T12:49:31.254Z,4.60
2022-10-20T12:52:00.294Z,4.57
2022-10-20T12:54:40.548Z,3.38
2022-10-20T12:57:41.787Z,7.00
2022-10-20T13:00:32.938Z,4.22
2022-10-20T13:03:00.367Z,4.03
2022-10-20T13:05:43.529Z,3.53
2022-10-20T13:08:19.817Z,6.95
2022-10-20T13:10:47.726Z,3.78
2022-10-20T13:13:20.558Z,4.75
2022-10-20T13:15:53.606Z,5.53
2022-10-20T13:18:31.708Z,6.53
2022-10-20T13:21:20.857Z,6.65
2022-10-20T13:23:53.682Z,5.97
2022-10-20T13:26:43.335Z,7.45
2022-10-20T13:29:20.284Z,5.50
2022-10-20T13:32:00.128Z,7.60
2022-10-20T13:34:41.509Z,6.65
2022-10-20T13:37:19.123Z,6.53
2022-10-20T13:39:52.179Z,6.88
2022-10-20T13:42:40.011Z,5.68
2022-10-20T13:45:07.219Z,5.23
2022-10-20T13:47:42.630Z,7.80
2022-10-20T13:52:54.829Z,6.32
2022-10-20T13:55:28.887Z,8.73
2022-10-20T13:58:08.839Z,6.40
2022-10-20T14:00:36.308Z,8.77
2022-10-20T14:03:15.552Z,7.63
2022-10-20T14:05:42.556Z,16.80
2022-10-20T14:08:17.831Z,8.77
2022-10-20T14:11:08.523Z,5.82
2022-10-20T14:13:36.417Z,8.98
2022-10-20T14:16:16.556Z,8.60
2022-10-20T14:18:43.423Z,8.23
2022-10-20T14:21:18.704Z,5.63
2022-10-20T14:23:49.260Z,5.60
2022-10-20T14:26:20.304Z,5.40
2022-10-20T14:28:50.528Z,7.55
2022-10-20T14:31:22.027Z,4.30
2022-10-20T14:33:51.611Z,6.55
2022-10-20T14:36:22.065Z,9.88
2022-10-20T14:38:54.946Z,7.10
2022-10-20T14:41:31.753Z,9.77
2022-10-20T14:44:05.915Z,19.52
2022-10-20T14:46:39.178Z,14.40
2022-10-20T14:49:25.296Z,10.88
2022-10-20T14:52:00.001Z,10.98
2022-10-20T14:54:39.174Z,15.45
2022-10-20T14:57:09.292Z,12.73
2022-10-20T14:59:49.679Z,11.30
2022-10-20T15:02:21.272Z,12.05
2022-10-20T15:04:52.015Z,16.27
2022-10-20T15:07:32.191Z,13.20
2022-10-20T15:10:08.262Z,18.90
2022-10-20T15:12:38.252Z,17.42
2022-10-20T15:15:05.406Z,18.17
2022-10-20T15:17:39.922Z,23.95
2022-10-20T15:20:40.074Z,14.02
2022-10-20T15:23:20.177Z,29.70
2022-10-20T15:25:50.060Z,21.73
2022-10-20T15:28:34.946Z,58.57
2022-10-20T15:31:04.321Z,127.90
2022-10-20T15:33:32.103Z,131.77
2022-10-20T15:36:00.675Z,204.70
2022-10-20T15:38:27.778Z,249.95
2022-10-20T15:40:54.622Z,281.93
2022-10-20T15:43:21.748Z,282.87
2022-10-20T15:45:55.082Z,246.80
2022-10-20T15:48:26.024Z,354.73
2022-10-20T15:50:59.051Z,532.17
2022-10-20T15:53:26.121Z,476.87
2022-10-20T15:55:52.969Z,353.90
2022-10-20T15:58:20.109Z,294.80
2022-10-20T16:00:46.926Z,315.90
2022-10-20T16:03:18.498Z,285.90
2022-10-20T16:05:46.797Z,281.87
2022-10-20T16:10:43.722Z,299.03
2022-10-20T16:13:11.414Z,249.02
2022-10-20T16:15:38.152Z,269.60
2022-10-20T16:18:07.352Z,292.00
2022-10-20T16:20:36.578Z,308.23
2022-10-20T16:23:03.675Z,299.80
2022-10-20T16:25:30.492Z,331.73
2022-10-20T16:27:57.501Z,293.90
2022-10-20T16:30:24.316Z,301.00
2022-10-20T16:32:51.288Z,354.43
2022-10-20T16:35:18.065Z,336.10
2022-10-20T16:37:45.018Z,288.30
2022-10-20T16:40:12.229Z,227.50
2022-10-20T16:42:39.420Z,191.23
2022-10-20T16:45:06.591Z,179.07
2022-10-20T16:47:33.759Z,177.47
2022-10-20T16:50:00.712Z,176.43
2022-10-20T16:52:27.754Z,172.00
2022-10-20T16:54:54.504Z,172.97
2022-10-20T16:57:21.648Z,194.53
2022-10-20T16:59:51.023Z,193.53
2022-10-20T17:02:19.611Z,199.23
2022-10-20T17:04:50.090Z,205.52
2022-10-20T17:07:17.782Z,222.43
2022-10-20T17:09:45.703Z,190.67
2022-10-20T17:12:12.689Z,195.27
2022-10-20T17:14:40.813Z,206.43
2022-10-20T17:17:07.932Z,194.20
2022-10-20T17:19:34.965Z,167.13
2022-10-20T17:22:02.019Z,184.27
2022-10-20T17:24:29.105Z,194.70
2022-10-20T17:26:56.090Z,172.90
2022-10-20T17:29:25.990Z,159.47
2022-10-20T17:31:53.236Z,164.93
2022-10-20T17:34:20.271Z,162.00
2022-10-20T17:36:47.212Z,153.37
2022-10-20T17:39:16.509Z,157.63
2022-10-20T17:41:43.699Z,180.37
2022-10-20T17:44:10.526Z,198.83
2022-10-20T17:46:38.677Z,214.07
2022-10-20T17:49:06.033Z,201.67
2022-10-20T17:51:34.758Z,198.33
2022-10-20T17:54:02.671Z,175.82
2022-10-20T17:56:37.316Z,171.80
2022-10-20T17:59:06.573Z,169.37
2022-10-20T18:01:37.007Z,157.73
2022-10-20T18:04:06.816Z,146.20
2022-10-20T18:06:35.319Z,138.53
2022-10-20T18:09:06.460Z,123.72
2022-10-20T18:11:35.522Z,126.23
2022-10-20T18:14:03.118Z,127.88
2022-10-20T18:16:32.452Z,131.50
2022-10-20T18:21:28.599Z,162.53
2022-10-20T18:24:02.401Z,173.02
2022-10-20T18:26:30.903Z,145.17
2022-10-20T18:28:59.549Z,136.13
2022-10-20T18:31:30.255Z,107.30
2022-10-20T18:34:04.203Z,109.83
2022-10-20T18:36:36.235Z,92.17
2022-10-20T18:39:06.069Z,100.83
2022-10-20T18:41:38.325Z,118.90
2022-10-20T18:44:10.265Z,107.87
2022-10-20T18:46:37.890Z,115.50
2022-10-20T18:49:07.278Z,108.37
2022-10-20T18:51:36.214Z,106.43
2022-10-20T18:54:04.977Z,120.75
2022-10-20T18:56:32.080Z,119.88
2022-10-20T18:59:01.373Z,103.10
2022-10-20T19:01:31.338Z,86.70
2022-10-20T19:03:59.081Z,93.73
2022-10-20T19:06:29.407Z,89.50
2022-10-20T19:08:59.126Z,83.60
2022-10-20T19:11:28.378Z,88.63
2022-10-20T19:13:56.449Z,86.63
2022-10-20T19:16:26.698Z,87.90
2022-10-20T19:18:55.861Z,76.03
2022-10-20T19:21:24.211Z,81.77
2022-10-20T19:23:53.979Z,77.87
2022-10-20T19:26:23.799Z,91.07
2022-10-20T19:28:58.680Z,81.23
2022-10-20T19:31:28.807Z,80.90
2022-10-20T19:34:14.401Z,80.00
2022-10-20T19:36:42.693Z,72.17
2022-10-20T19:39:11.324Z,75.90
2022-10-20T19:41:38.378Z,78.03
2022-10-20T19:44:05.739Z,80.63
2022-10-20T19:46:32.972Z,86.97
2022-10-20T19:48:59.758Z,87.50
2022-10-20T19:51:26.766Z,82.30
2022-10-20T19:53:53.544Z,79.27
2022-10-20T19:56:20.586Z,88.30
2022-10-20T19:58:48.535Z,86.57
2022-10-20T20:01:16.620Z,63.95
2022-10-20T20:03:44.393Z,79.10
2022-10-20T20:06:17.952Z,75.00
2022-10-20T20:08:47.707Z,72.80
2022-10-20T20:11:27.480Z,76.57
2022-10-20T20:13:57.460Z,77.33
2022-10-20T20:16:25.177Z,70.57
2022-10-20T20:18:52.091Z,87.30
2022-10-20T20:21:19.124Z,102.57
2022-10-20T20:24:01.621Z,83.93
2022-10-20T20:26:30.894Z,81.83
2022-10-20T20:28:58.641Z,71.15
2022-10-20T20:31:28.061Z,71.80
2022-10-20T20:33:56.887Z,67.15
2022-10-20T20:38:56.671Z,71.63
2022-10-20T20:41:26.782Z,75.67
2022-10-20T20:43:54.470Z,68.63
2022-10-20T20:46:23.853Z,71.77
2022-10-20T20:48:50.735Z,73.90
2022-10-20T20:51:17.962Z,72.80
2022-10-20T20:53:44.753Z,72.53
2022-10-20T20:56:14.351Z,76.37
2022-10-20T20:58:54.751Z,67.63
2022-10-20T21:01:27.787Z,71.43
2022-10-20T21:04:01.700Z,71.20
2022-10-20T21:06:38.062Z,64.37
2022-10-20T21:09:16.425Z,59.03
2022-10-20T21:11:43.417Z,59.67
2022-10-20T21:14:10.273Z,70.20
2022-10-20T21:16:38.177Z,69.03
2022-10-20T21:19:08.646Z,67.03
2022-10-20T21:21:47.139Z,60.73
2022-10-20T21:24:13.985Z,61.78
2022-10-20T21:26:41.145Z,58.67
2022-10-20T21:29:07.941Z,58.60
2022-10-20T21:31:35.338Z,62.70
2022-10-20T21:34:04.639Z,52.77
2022-10-20T21:36:34.801Z,56.90
2022-10-20T21:39:04.298Z,48.40
2022-10-20T21:41:33.409Z,57.03
2022-10-20T21:44:01.643Z,52.80
2022-10-20T21:46:31.530Z,55.47
2022-10-20T21:49:20.032Z,56.00
2022-10-20T21:51:50.060Z,51.40
2022-10-20T21:56:52.322Z,56.80
2022-10-20T21:59:30.240Z,53.50
2022-10-20T22:01:59.749Z,36.05
2022-10-20T22:04:29.141Z,47.13
2022-10-20T22:06:56.905Z,56.13
2022-10-20T22:09:24.054Z,58.40
2022-10-20T22:11:55.412Z,59.03
2022-10-20T22:14:22.805Z,56.23
2022-10-20T22:16:49.803Z,56.33
2022-10-20T22:19:20.109Z,58.50
2022-10-20T22:21:49.353Z,56.17
2022-10-20T22:24:18.631Z,54.30
2022-10-20T22:26:46.100Z,54.57
2022-10-20T22:29:13.303Z,52.00
2022-10-20T22:31:41.170Z,50.67
2022-10-20T22:34:09.141Z,50.83
2022-10-20T22:36:36.301Z,35.10
2022-10-20T22:39:03.840Z,42.97
2022-10-20T22:41:30.882Z,41.70
2022-10-20T22:43:58.138Z,40.97
2022-10-20T22:46:25.204Z,42.07
2022-10-20T22:48:52.055Z,42.80
2022-10-20T22:51:19.296Z,70.33
2022-10-20T22:53:46.099Z,68.80
2022-10-20T22:56:17.577Z,46.97
2022-10-20T22:58:44.818Z,46.57
2022-10-20T23:01:15.289Z,34.17
2022-10-20T23:03:42.702Z,32.77
2022-10-20T23:06:15.370Z,34.57
2022-10-20T23:08:44.937Z,32.13
2022-10-20T23:11:13.088Z,35.30
2022-10-20T23:13:39.913Z,39.30
2022-10-20T23:16:07.339Z,33.90
2022-10-20T23:18:34.373Z,39.70
2022-10-20T23:21:01.577Z,31.53
2022-10-20T23:23:28.396Z,39.83
2022-10-20T23:25:56.844Z,38.07
2022-10-20T23:28:25.348Z,45.60
2022-10-20T23:30:52.306Z,47.90
2022-10-20T23:33:19.137Z,35.47
2022-10-20T23:35:47.245Z,36.53
2022-10-20T23:38:14.045Z,39.13
2022-10-20T23:40:41.034Z,60.77
2022-10-20T23:43:08.088Z,41.40
2022-10-20T23:45:37.000Z,41.90
2022-10-20T23:48:04.845Z,37.23
2022-10-20T23:50:31.838Z,43.27
2022-10-20T23:52:58.622Z,39.03
2022-10-20T23:55:25.587Z,45.27
2022-10-20T23:57:52.367Z,60.73
